sensor_id;sensor_type;location;lat;lon;timestamp;P1;durP1;ratioP1;P2;durP2;ratioP2
18013;SDS011;9132;47.946;10.394;2022-12-18T00:01:27;29.27;;;15.67;;
18013;SDS011;9132;47.946;10.394;2022-12-18T00:03:54;27.17;;;15.00;;
18013;SDS011;9132;47.946;10.394;2022-12-18T00:06:21;28.50;;;15.10;;
18013;SDS011;9132;47.946;10.394;2022-12-18T00:08:48;25.63;;;14.00;;
18013;SDS011;9132;47.946;10.394;2022-12-18T00:11:16;25.33;;;13.87;;
18013;SDS011;9132;47.946;10.394;2022-12-18T00:13:43;23.37;;;13.80;;
18013;SDS011;9132;47.946;10.394;2022-12-18T00:16:10;24.40;;;13.17;;
18013;SDS011;9132;47.946;10.394;2022-12-18T00:18:37;22.47;;;12.97;;
18013;SDS011;9132;47.946;10.394;2022-12-18T00:21:04;26.90;;;14.00;;
18013;SDS011;9132;47.946;10.394;2022-12-18T00:23:32;25.53;;;14.47;;
18013;SDS011;9132;47.946;10.394;2022-12-18T00:25:58;25.50;;;13.73;;
18013;SDS011;9132;47.946;10.394;2022-12-18T00:28:26;27.80;;;15.23;;
18013;SDS011;9132;47.946;10.394;2022-12-18T00:30:59;26.17;;;14.00;;
18013;SDS011;9132;47.946;10.394;2022-12-18T00:33:26;27.23;;;14.47;;
18013;SDS011;9132;47.946;10.394;2022-12-18T00:35:52;26.67;;;14.43;;
18013;SDS011;9132;47.946;10.394;2022-12-18T00:38:18;30.03;;;15.13;;
18013;SDS011;9132;47.946;10.394;2022-12-18T00:40:45;27.27;;;14.63;;
18013;SDS011;9132;47.946;10.394;2022-12-18T00:43:11;26.03;;;15.13;;
18013;SDS011;9132;47.946;10.394;2022-12-18T00:45:38;25.33;;;13.77;;
18013;SDS011;9132;47.946;10.394;2022-12-18T00:48:04;26.73;;;13.97;;
18013;SDS011;9132;47.946;10.394;2022-12-18T00:50:31;24.47;;;13.23;;
18013;SDS011;9132;47.946;10.394;2022-12-18T00:52:57;25.20;;;13.50;;
18013;SDS011;9132;47.946;10.394;2022-12-18T00:55:23;26.37;;;13.93;;
18013;SDS011;9132;47.946;10.394;2022-12-18T00:57:50;24.37;;;14.30;;
18013;SDS011;9132;47.946;10.394;2022-12-18T01:00:16;23.00;;;12.93;;
18013;SDS011;9132;47.946;10.394;2022-12-18T01:02:45;26.27;;;13.40;;
18013;SDS011;9132;47.946;10.394;2022-12-18T01:05:12;25.70;;;13.83;;
18013;SDS011;9132;47.946;10.394;2022-12-18T01:07:38;23.17;;;13.67;;
18013;SDS011;9132;47.946;10.394;2022-12-18T01:10:05;23.87;;;13.23;;
18013;SDS011;9132;47.946;10.394;2022-12-18T01:12:31;26.70;;;13.83;;
18013;SDS011;9132;47.946;10.394;2022-12-18T01:14:58;23.07;;;13.67;;
18013;SDS011;9132;47.946;10.394;2022-12-18T01:17:24;27.37;;;14.23;;
18013;SDS011;9132;47.946;10.394;2022-12-18T01:19:52;26.90;;;14.30;;
18013;SDS011;9132;47.946;10.394;2022-12-18T01:22:19;22.70;;;13.07;;
18013;SDS011;9132;47.946;10.394;2022-12-18T01:24:45;23.97;;;13.37;;
18013;SDS011;9132;47.946;10.394;2022-12-18T01:27:12;24.50;;;14.10;;
18013;SDS011;9132;47.946;10.394;2022-12-18T01:29:38;23.97;;;14.43;;
18013;SDS011;9132;47.946;10.394;2022-12-18T01:32:04;26.00;;;14.40;;
18013;SDS011;9132;47.946;10.394;2022-12-18T01:34:31;24.60;;;13.83;;
18013;SDS011;9132;47.946;10.394;2022-12-18T01:36:58;26.17;;;14.77;;
18013;SDS011;9132;47.946;10.394;2022-12-18T01:39:28;27.73;;;14.73;;
18013;SDS011;9132;47.946;10.394;2022-12-18T01:41:54;27.27;;;14.83;;
18013;SDS011;9132;47.946;10.394;2022-12-18T01:44:51;24.27;;;13.83;;
18013;SDS011;9132;47.946;10.394;2022-12-18T01:47:20;27.83;;;14.57;;
18013;SDS011;9132;47.946;10.394;2022-12-18T01:49:46;25.53;;;14.03;;
18013;SDS011;9132;47.946;10.394;2022-12-18T01:52:14;28.60;;;14.10;;
18013;SDS011;9132;47.946;10.394;2022-12-18T01:54:41;28.47;;;15.00;;
18013;SDS011;9132;47.946;10.394;2022-12-18T01:57:07;23.27;;;12.83;;
18013;SDS011;9132;47.946;10.394;2022-12-18T01:59:34;25.00;;;14.27;;
18013;SDS011;9132;47.946;10.394;2022-12-18T02:02:01;25.03;;;13.57;;
18013;SDS011;9132;47.946;10.394;2022-12-18T02:04:28;26.27;;;13.47;;
18013;SDS011;9132;47.946;10.394;2022-12-18T02:06:55;26.20;;;13.53;;
18013;SDS011;9132;47.946;10.394;2022-12-18T02:09:26;25.77;;;15.03;;
18013;SDS011;9132;47.946;10.394;2022-12-18T02:11:56;22.47;;;12.77;;
18013;SDS011;9132;47.946;10.394;2022-12-18T02:14:27;25.23;;;14.37;;
18013;SDS011;9132;47.946;10.394;2022-12-18T02:16:55;21.63;;;12.57;;
18013;SDS011;9132;47.946;10.394;2022-12-18T02:19:39;27.83;;;14.40;;
18013;SDS011;9132;47.946;10.394;2022-12-18T02:22:08;25.20;;;13.27;;
18013;SDS011;9132;47.946;10.394;2022-12-18T02:24:40;27.57;;;13.87;;
18013;SDS011;9132;47.946;10.394;2022-12-18T02:27:10;26.43;;;13.13;;
18013;SDS011;9132;47.946;10.394;2022-12-18T02:29:38;25.73;;;13.80;;
18013;SDS011;9132;47.946;10.394;2022-12-18T02:32:06;28.43;;;14.23;;
18013;SDS011;9132;47.946;10.394;2022-12-18T02:34:35;23.17;;;13.33;;
18013;SDS011;9132;47.946;10.394;2022-12-18T02:37:04;26.07;;;14.00;;
18013;SDS011;9132;47.946;10.394;2022-12-18T02:39:31;23.63;;;14.03;;
18013;SDS011;9132;47.946;10.394;2022-12-18T02:41:58;22.13;;;13.17;;
18013;SDS011;9132;47.946;10.394;2022-12-18T02:44:28;26.77;;;13.30;;
18013;SDS011;9132;47.946;10.394;2022-12-18T02:46:55;26.30;;;13.73;;
18013;SDS011;9132;47.946;10.394;2022-12-18T02:49:24;23.57;;;12.80;;
18013;SDS011;9132;47.946;10.394;2022-12-18T02:51:52;27.63;;;14.40;;
18013;SDS011;9132;47.946;10.394;2022-12-18T02:54:33;23.40;;;12.70;;
18013;SDS011;9132;47.946;10.394;2022-12-18T02:57:04;22.60;;;12.37;;
18013;SDS011;9132;47.946;10.394;2022-12-18T02:59:33;25.47;;;12.43;;
18013;SDS011;9132;47.946;10.394;2022-12-18T03:02:05;22.83;;;12.83;;
18013;SDS011;9132;47.946;10.394;2022-12-18T03:04:34;23.53;;;12.53;;
18013;SDS011;9132;47.946;10.394;2022-12-18T03:07:01;22.37;;;12.70;;
18013;SDS011;9132;47.946;10.394;2022-12-18T03:09:32;21.97;;;12.43;;
18013;SDS011;9132;47.946;10.394;2022-12-18T03:12:02;25.27;;;12.83;;
18013;SDS011;9132;47.946;10.394;2022-12-18T03:14:49;25.63;;;13.07;;
18013;SDS011;9132;47.946;10.394;2022-12-18T03:17:17;22.40;;;12.80;;
18013;SDS011;9132;47.946;10.394;2022-12-18T03:19:45;23.23;;;12.43;;
18013;SDS011;9132;47.946;10.394;2022-12-18T03:22:12;25.47;;;12.47;;
18013;SDS011;9132;47.946;10.394;2022-12-18T03:24:39;21.17;;;11.50;;
18013;SDS011;9132;47.946;10.394;2022-12-18T03:27:08;22.87;;;11.87;;
18013;SDS011;9132;47.946;10.394;2022-12-18T03:29:36;24.40;;;13.30;;
18013;SDS011;9132;47.946;10.394;2022-12-18T03:32:06;23.07;;;11.87;;
18013;SDS011;9132;47.946;10.394;2022-12-18T03:34:35;23.27;;;12.30;;
18013;SDS011;9132;47.946;10.394;2022-12-18T03:37:02;21.97;;;11.80;;
18013;SDS011;9132;47.946;10.394;2022-12-18T03:39:29;20.77;;;11.33;;
18013;SDS011;9132;47.946;10.394;2022-12-18T03:41:55;21.70;;;11.20;;
18013;SDS011;9132;47.946;10.394;2022-12-18T03:44:26;21.93;;;11.77;;
18013;SDS011;9132;47.946;10.394;2022-12-18T03:46:55;21.17;;;11.33;;
18013;SDS011;9132;47.946;10.394;2022-12-18T03:49:27;22.23;;;11.70;;
18013;SDS011;9132;47.946;10.394;2022-12-18T03:51:57;22.10;;;11.30;;
18013;SDS011;9132;47.946;10.394;2022-12-18T03:54:26;19.27;;;11.47;;
18013;SDS011;9132;47.946;10.394;2022-12-18T03:56:54;18.20;;;10.77;;
18013;SDS011;9132;47.946;10.394;2022-12-18T03:59:22;20.77;;;11.23;;
18013;SDS011;9132;47.946;10.394;2022-12-18T04:01:50;18.63;;;11.00;;
18013;SDS011;9132;47.946;10.394;2022-12-18T04:04:18;19.63;;;10.37;;
18013;SDS011;9132;47.946;10.394;2022-12-18T04:06:46;19.07;;;10.63;;
18013;SDS011;9132;47.946;10.394;2022-12-18T04:09:13;20.17;;;10.87;;
18013;SDS011;9132;47.946;10.394;2022-12-18T04:11:40;17.70;;;11.17;;
18013;SDS011;9132;47.946;10.394;2022-12-18T04:14:07;18.60;;;10.13;;
18013;SDS011;9132;47.946;10.394;2022-12-18T04:16:33;19.00;;;10.57;;
18013;SDS011;9132;47.946;10.394;2022-12-18T04:18:59;19.03;;;10.03;;
18013;SDS011;9132;47.946;10.394;2022-12-18T04:21:26;18.03;;;10.07;;
18013;SDS011;9132;47.946;10.394;2022-12-18T04:23:53;18.30;;;9.77;;
18013;SDS011;9132;47.946;10.394;2022-12-18T04:26:20;18.27;;;9.80;;
18013;SDS011;9132;47.946;10.394;2022-12-18T04:28:46;18.80;;;9.93;;
18013;SDS011;9132;47.946;10.394;2022-12-18T04:31:13;21.00;;;11.10;;
18013;SDS011;9132;47.946;10.394;2022-12-18T04:33:39;22.60;;;11.10;;
18013;SDS011;9132;47.946;10.394;2022-12-18T04:36:06;20.47;;;10.97;;
18013;SDS011;9132;47.946;10.394;2022-12-18T04:38:32;19.43;;;10.40;;
18013;SDS011;9132;47.946;10.394;2022-12-18T04:41:00;19.27;;;10.30;;
18013;SDS011;9132;47.946;10.394;2022-12-18T04:43:26;23.07;;;11.73;;
18013;SDS011;9132;47.946;10.394;2022-12-18T04:45:52;19.90;;;10.40;;
18013;SDS011;9132;47.946;10.394;2022-12-18T04:48:19;20.17;;;10.93;;
18013;SDS011;9132;47.946;10.394;2022-12-18T04:50:46;19.97;;;11.30;;
18013;SDS011;9132;47.946;10.394;2022-12-18T04:53:12;19.50;;;11.00;;
18013;SDS011;9132;47.946;10.394;2022-12-18T04:55:39;19.23;;;10.40;;
18013;SDS011;9132;47.946;10.394;2022-12-18T04:58:06;19.00;;;10.30;;
18013;SDS011;9132;47.946;10.394;2022-12-18T05:00:33;19.53;;;10.13;;
18013;SDS011;9132;47.946;10.394;2022-12-18T05:03:00;18.33;;;10.10;;
18013;SDS011;9132;47.946;10.394;2022-12-18T05:05:26;20.33;;;9.90;;
18013;SDS011;9132;47.946;10.394;2022-12-18T05:07:53;17.93;;;10.00;;
18013;SDS011;9132;47.946;10.394;2022-12-18T05:10:19;21.77;;;10.37;;
18013;SDS011;9132;47.946;10.394;2022-12-18T05:12:45;19.53;;;10.27;;
18013;SDS011;9132;47.946;10.394;2022-12-18T05:15:25;17.67;;;9.93;;
18013;SDS011;9132;47.946;10.394;2022-12-18T05:17:52;19.93;;;9.20;;
18013;SDS011;9132;47.946;10.394;2022-12-18T05:20:18;19.03;;;9.43;;
18013;SDS011;9132;47.946;10.394;2022-12-18T05:22:45;21.33;;;10.50;;
18013;SDS011;9132;47.946;10.394;2022-12-18T05:25:11;18.17;;;9.80;;
18013;SDS011;9132;47.946;10.394;2022-12-18T05:27:37;17.33;;;9.80;;
18013;SDS011;9132;47.946;10.394;2022-12-18T05:30:04;18.37;;;9.53;;
18013;SDS011;9132;47.946;10.394;2022-12-18T05:32:32;19.40;;;10.80;;
18013;SDS011;9132;47.946;10.394;2022-12-18T05:34:58;19.93;;;10.23;;
18013;SDS011;9132;47.946;10.394;2022-12-18T05:37:24;21.03;;;10.13;;
18013;SDS011;9132;47.946;10.394;2022-12-18T05:39:51;22.70;;;10.53;;
18013;SDS011;9132;47.946;10.394;2022-12-18T05:42:17;20.07;;;10.43;;
18013;SDS011;9132;47.946;10.394;2022-12-18T05:44:44;20.20;;;10.83;;
18013;SDS011;9132;47.946;10.394;2022-12-18T05:47:10;20.77;;;10.67;;
18013;SDS011;9132;47.946;10.394;2022-12-18T05:49:38;22.70;;;10.07;;
18013;SDS011;9132;47.946;10.394;2022-12-18T05:52:04;20.30;;;10.17;;
18013;SDS011;9132;47.946;10.394;2022-12-18T05:54:30;18.17;;;9.87;;
18013;SDS011;9132;47.946;10.394;2022-12-18T05:56:57;19.10;;;9.67;;
18013;SDS011;9132;47.946;10.394;2022-12-18T05:59:23;20.03;;;10.33;;
18013;SDS011;9132;47.946;10.394;2022-12-18T06:01:49;19.20;;;9.23;;
18013;SDS011;9132;47.946;10.394;2022-12-18T06:04:16;17.07;;;8.80;;
18013;SDS011;9132;47.946;10.394;2022-12-18T06:06:44;18.03;;;9.57;;
18013;SDS011;9132;47.946;10.394;2022-12-18T06:09:10;19.43;;;9.53;;
18013;SDS011;9132;47.946;10.394;2022-12-18T06:11:37;17.90;;;9.93;;
18013;SDS011;9132;47.946;10.394;2022-12-18T06:14:04;19.60;;;10.13;;
18013;SDS011;9132;47.946;10.394;2022-12-18T06:16:31;15.97;;;8.27;;
18013;SDS011;9132;47.946;10.394;2022-12-18T06:18:57;18.10;;;9.53;;
18013;SDS011;9132;47.946;10.394;2022-12-18T06:21:24;17.97;;;8.73;;
18013;SDS011;9132;47.946;10.394;2022-12-18T06:23:52;17.70;;;8.80;;
18013;SDS011;9132;47.946;10.394;2022-12-18T06:26:18;17.00;;;9.20;;
18013;SDS011;9132;47.946;10.394;2022-12-18T06:28:45;17.57;;;9.23;;
18013;SDS011;9132;47.946;10.394;2022-12-18T06:31:11;17.00;;;8.70;;
18013;SDS011;9132;47.946;10.394;2022-12-18T06:33:38;18.43;;;8.97;;
18013;SDS011;9132;47.946;10.394;2022-12-18T06:36:05;19.33;;;9.70;;
18013;SDS011;9132;47.946;10.394;2022-12-18T06:38:32;17.93;;;9.17;;
18013;SDS011;9132;47.946;10.394;2022-12-18T06:41:00;18.03;;;9.53;;
18013;SDS011;9132;47.946;10.394;2022-12-18T06:43:26;18.70;;;9.83;;
18013;SDS011;9132;47.946;10.394;2022-12-18T06:45:57;16.57;;;9.57;;
18013;SDS011;9132;47.946;10.394;2022-12-18T06:48:23;20.63;;;9.37;;
18013;SDS011;9132;47.946;10.394;2022-12-18T06:50:50;17.70;;;9.03;;
18013;SDS011;9132;47.946;10.394;2022-12-18T06:53:16;20.53;;;9.80;;
18013;SDS011;9132;47.946;10.394;2022-12-18T06:55:42;19.23;;;8.87;;
18013;SDS011;9132;47.946;10.394;2022-12-18T06:58:10;18.43;;;9.83;;
18013;SDS011;9132;47.946;10.394;2022-12-18T07:00:37;16.90;;;8.80;;
18013;SDS011;9132;47.946;10.394;2022-12-18T07:03:03;17.80;;;8.63;;
18013;SDS011;9132;47.946;10.394;2022-12-18T07:05:29;21.23;;;9.40;;
18013;SDS011;9132;47.946;10.394;2022-12-18T07:07:56;18.80;;;10.20;;
18013;SDS011;9132;47.946;10.394;2022-12-18T07:10:22;17.80;;;9.03;;
18013;SDS011;9132;47.946;10.394;2022-12-18T07:12:48;21.87;;;11.87;;
18013;SDS011;9132;47.946;10.394;2022-12-18T07:15:16;20.07;;;11.57;;
18013;SDS011;9132;47.946;10.394;2022-12-18T07:17:42;28.07;;;15.13;;
18013;SDS011;9132;47.946;10.394;2022-12-18T07:20:09;21.03;;;11.97;;
18013;SDS011;9132;47.946;10.394;2022-12-18T07:22:36;18.37;;;9.70;;
18013;SDS011;9132;47.946;10.394;2022-12-18T07:25:02;15.80;;;8.73;;
18013;SDS011;9132;47.946;10.394;2022-12-18T07:27:29;20.80;;;9.13;;
18013;SDS011;9132;47.946;10.394;2022-12-18T07:29:55;16.87;;;8.83;;
18013;SDS011;9132;47.946;10.394;2022-12-18T07:32:23;20.53;;;10.10;;
18013;SDS011;9132;47.946;10.394;2022-12-18T07:34:49;14.77;;;8.57;;
18013;SDS011;9132;47.946;10.394;2022-12-18T07:37:16;16.40;;;8.37;;
18013;SDS011;9132;47.946;10.394;2022-12-18T07:39:42;20.10;;;9.93;;
18013;SDS011;9132;47.946;10.394;2022-12-18T07:42:09;20.60;;;9.30;;
18013;SDS011;9132;47.946;10.394;2022-12-18T07:44:53;15.30;;;7.90;;
18013;SDS011;9132;47.946;10.394;2022-12-18T07:47:19;19.30;;;9.50;;
18013;SDS011;9132;47.946;10.394;2022-12-18T07:49:47;17.33;;;7.87;;
18013;SDS011;9132;47.946;10.394;2022-12-18T07:52:13;17.07;;;7.80;;
18013;SDS011;9132;47.946;10.394;2022-12-18T07:54:39;16.10;;;8.97;;
18013;SDS011;9132;47.946;10.394;2022-12-18T07:57:06;17.13;;;8.33;;
18013;SDS011;9132;47.946;10.394;2022-12-18T07:59:32;21.50;;;9.87;;
18013;SDS011;9132;47.946;10.394;2022-12-18T08:01:59;17.43;;;8.23;;
18013;SDS011;9132;47.946;10.394;2022-12-18T08:04:25;15.70;;;8.57;;
18013;SDS011;9132;47.946;10.394;2022-12-18T08:06:53;16.63;;;8.73;;
18013;SDS011;9132;47.946;10.394;2022-12-18T08:09:19;18.53;;;9.17;;
18013;SDS011;9132;47.946;10.394;2022-12-18T08:11:45;17.00;;;8.30;;
18013;SDS011;9132;47.946;10.394;2022-12-18T08:14:12;18.80;;;8.80;;
18013;SDS011;9132;47.946;10.394;2022-12-18T08:16:38;17.17;;;8.27;;
18013;SDS011;9132;47.946;10.394;2022-12-18T08:19:05;14.53;;;7.47;;
18013;SDS011;9132;47.946;10.394;2022-12-18T08:21:31;17.03;;;7.87;;
18013;SDS011;9132;47.946;10.394;2022-12-18T08:23:59;16.03;;;8.20;;
18013;SDS011;9132;47.946;10.394;2022-12-18T08:26:27;19.13;;;8.83;;
18013;SDS011;9132;47.946;10.394;2022-12-18T08:28:53;19.07;;;8.63;;
18013;SDS011;9132;47.946;10.394;2022-12-18T08:31:20;17.60;;;8.90;;
18013;SDS011;9132;47.946;10.394;2022-12-18T08:33:48;15.17;;;8.00;;
18013;SDS011;9132;47.946;10.394;2022-12-18T08:36:14;17.33;;;8.87;;
18013;SDS011;9132;47.946;10.394;2022-12-18T08:38:41;21.23;;;10.60;;
18013;SDS011;9132;47.946;10.394;2022-12-18T08:41:09;20.43;;;9.67;;
18013;SDS011;9132;47.946;10.394;2022-12-18T08:43:35;19.87;;;9.47;;
18013;SDS011;9132;47.946;10.394;2022-12-18T08:46:20;19.53;;;10.17;;
18013;SDS011;9132;47.946;10.394;2022-12-18T08:48:47;16.97;;;9.73;;
18013;SDS011;9132;47.946;10.394;2022-12-18T08:51:15;19.80;;;8.90;;
18013;SDS011;9132;47.946;10.394;2022-12-18T08:53:42;19.83;;;10.00;;
18013;SDS011;9132;47.946;10.394;2022-12-18T08:56:10;26.77;;;13.37;;
18013;SDS011;9132;47.946;10.394;2022-12-18T08:58:37;16.47;;;9.10;;
18013;SDS011;9132;47.946;10.394;2022-12-18T09:01:04;14.60;;;8.93;;
18013;SDS011;9132;47.946;10.394;2022-12-18T09:03:31;15.80;;;8.07;;
18013;SDS011;9132;47.946;10.394;2022-12-18T09:05:58;16.17;;;8.87;;
18013;SDS011;9132;47.946;10.394;2022-12-18T09:08:24;16.70;;;8.40;;
18013;SDS011;9132;47.946;10.394;2022-12-18T09:10:51;18.60;;;8.90;;
18013;SDS011;9132;47.946;10.394;2022-12-18T09:13:19;17.47;;;9.73;;
18013;SDS011;9132;47.946;10.394;2022-12-18T09:15:46;21.10;;;11.23;;
18013;SDS011;9132;47.946;10.394;2022-12-18T09:18:13;15.67;;;9.50;;
18013;SDS011;9132;47.946;10.394;2022-12-18T09:20:40;19.17;;;10.43;;
18013;SDS011;9132;47.946;10.394;2022-12-18T09:23:07;19.50;;;9.03;;
18013;SDS011;9132;47.946;10.394;2022-12-18T09:25:34;23.83;;;12.17;;
18013;SDS011;9132;47.946;10.394;2022-12-18T09:28:01;20.43;;;10.20;;
18013;SDS011;9132;47.946;10.394;2022-12-18T09:30:28;16.03;;;8.30;;
18013;SDS011;9132;47.946;10.394;2022-12-18T09:32:55;21.10;;;10.70;;
18013;SDS011;9132;47.946;10.394;2022-12-18T09:35:21;20.80;;;11.27;;
18013;SDS011;9132;47.946;10.394;2022-12-18T09:37:48;23.43;;;15.17;;
18013;SDS011;9132;47.946;10.394;2022-12-18T09:40:14;18.80;;;10.37;;
18013;SDS011;9132;47.946;10.394;2022-12-18T09:42:42;17.27;;;10.10;;
18013;SDS011;9132;47.946;10.394;2022-12-18T09:45:11;16.93;;;9.13;;
18013;SDS011;9132;47.946;10.394;2022-12-18T09:47:40;17.60;;;8.83;;
18013;SDS011;9132;47.946;10.394;2022-12-18T09:50:15;14.73;;;8.83;;
18013;SDS011;9132;47.946;10.394;2022-12-18T09:52:43;15.27;;;9.00;;
18013;SDS011;9132;47.946;10.394;2022-12-18T09:55:11;16.87;;;9.40;;
18013;SDS011;9132;47.946;10.394;2022-12-18T09:57:40;19.23;;;9.60;;
18013;SDS011;9132;47.946;10.394;2022-12-18T10:00:11;19.67;;;9.33;;
18013;SDS011;9132;47.946;10.394;2022-12-18T10:02:42;22.27;;;10.47;;
18013;SDS011;9132;47.946;10.394;2022-12-18T10:05:10;41.93;;;25.07;;
18013;SDS011;9132;47.946;10.394;2022-12-18T10:07:47;21.20;;;12.10;;
18013;SDS011;9132;47.946;10.394;2022-12-18T10:10:19;21.03;;;10.87;;
18013;SDS011;9132;47.946;10.394;2022-12-18T10:12:49;16.33;;;9.20;;
18013;SDS011;9132;47.946;10.394;2022-12-18T10:15:19;17.93;;;9.57;;
18013;SDS011;9132;47.946;10.394;2022-12-18T10:17:50;19.53;;;10.63;;
18013;SDS011;9132;47.946;10.394;2022-12-18T10:20:19;17.90;;;9.23;;
18013;SDS011;9132;47.946;10.394;2022-12-18T10:22:50;26.23;;;15.33;;
18013;SDS011;9132;47.946;10.394;2022-12-18T10:25:20;29.27;;;17.93;;
18013;SDS011;9132;47.946;10.394;2022-12-18T10:27:47;18.43;;;10.27;;
18013;SDS011;9132;47.946;10.394;2022-12-18T10:30:19;22.77;;;11.30;;
18013;SDS011;9132;47.946;10.394;2022-12-18T10:32:45;18.57;;;10.50;;
18013;SDS011;9132;47.946;10.394;2022-12-18T10:35:15;20.20;;;10.50;;
18013;SDS011;9132;47.946;10.394;2022-12-18T10:37:58;22.53;;;11.03;;
18013;SDS011;9132;47.946;10.394;2022-12-18T10:40:25;21.60;;;11.50;;
18013;SDS011;9132;47.946;10.394;2022-12-18T10:43:02;18.70;;;10.23;;
18013;SDS011;9132;47.946;10.394;2022-12-18T10:45:29;18.57;;;9.87;;
18013;SDS011;9132;47.946;10.394;2022-12-18T10:47:55;17.97;;;10.30;;
18013;SDS011;9132;47.946;10.394;2022-12-18T10:50:25;21.90;;;10.60;;
18013;SDS011;9132;47.946;10.394;2022-12-18T10:52:53;20.13;;;10.37;;
18013;SDS011;9132;47.946;10.394;2022-12-18T10:55:20;18.23;;;10.27;;
18013;SDS011;9132;47.946;10.394;2022-12-18T10:57:46;21.67;;;10.90;;
18013;SDS011;9132;47.946;10.394;2022-12-18T11:00:20;21.43;;;10.40;;
18013;SDS011;9132;47.946;10.394;2022-12-18T11:02:47;18.83;;;10.60;;
18013;SDS011;9132;47.946;10.394;2022-12-18T11:05:24;20.83;;;10.87;;
18013;SDS011;9132;47.946;10.394;2022-12-18T11:07:51;21.20;;;11.50;;
18013;SDS011;9132;47.946;10.394;2022-12-18T11:10:19;18.80;;;11.30;;
18013;SDS011;9132;47.946;10.394;2022-12-18T11:12:46;23.33;;;12.13;;
18013;SDS011;9132;47.946;10.394;2022-12-18T11:15:16;22.93;;;13.03;;
18013;SDS011;9132;47.946;10.394;2022-12-18T11:17:44;20.53;;;12.20;;
18013;SDS011;9132;47.946;10.394;2022-12-18T11:20:19;20.27;;;12.43;;
18013;SDS011;9132;47.946;10.394;2022-12-18T11:22:54;18.77;;;10.87;;
18013;SDS011;9132;47.946;10.394;2022-12-18T11:25:22;21.97;;;12.83;;
18013;SDS011;9132;47.946;10.394;2022-12-18T11:27:48;21.67;;;12.67;;
18013;SDS011;9132;47.946;10.394;2022-12-18T11:30:20;23.47;;;12.10;;
18013;SDS011;9132;47.946;10.394;2022-12-18T11:32:47;21.10;;;11.60;;
18013;SDS011;9132;47.946;10.394;2022-12-18T11:35:15;24.20;;;11.93;;
18013;SDS011;9132;47.946;10.394;2022-12-18T11:37:43;22.37;;;12.80;;
18013;SDS011;9132;47.946;10.394;2022-12-18T11:40:14;21.87;;;12.53;;
18013;SDS011;9132;47.946;10.394;2022-12-18T11:42:42;23.50;;;13.00;;
18013;SDS011;9132;47.946;10.394;2022-12-18T11:45:20;24.03;;;12.93;;
18013;SDS011;9132;47.946;10.394;2022-12-18T11:47:49;25.47;;;13.87;;
18013;SDS011;9132;47.946;10.394;2022-12-18T11:50:17;23.23;;;12.40;;
18013;SDS011;9132;47.946;10.394;2022-12-18T11:52:44;22.80;;;12.53;;
18013;SDS011;9132;47.946;10.394;2022-12-18T11:55:12;23.27;;;12.43;;
18013;SDS011;9132;47.946;10.394;2022-12-18T11:57:43;28.90;;;14.97;;
18013;SDS011;9132;47.946;10.394;2022-12-18T12:00:15;27.10;;;15.23;;
18013;SDS011;9132;47.946;10.394;2022-12-18T12:02:55;27.37;;;13.57;;
18013;SDS011;9132;47.946;10.394;2022-12-18T12:05:36;24.27;;;13.63;;
18013;SDS011;9132;47.946;10.394;2022-12-18T12:08:07;25.10;;;13.27;;
18013;SDS011;9132;47.946;10.394;2022-12-18T12:10:39;25.50;;;13.30;;
18013;SDS011;9132;47.946;10.394;2022-12-18T12:13:14;27.80;;;15.20;;
18013;SDS011;9132;47.946;10.394;2022-12-18T12:15:45;24.57;;;13.00;;
18013;SDS011;9132;47.946;10.394;2022-12-18T12:18:19;24.63;;;14.57;;
18013;SDS011;9132;47.946;10.394;2022-12-18T12:20:49;27.20;;;13.67;;
18013;SDS011;9132;47.946;10.394;2022-12-18T12:23:21;30.17;;;16.70;;
18013;SDS011;9132;47.946;10.394;2022-12-18T12:25:51;28.73;;;13.93;;
18013;SDS011;9132;47.946;10.394;2022-12-18T12:28:25;27.10;;;14.10;;
18013;SDS011;9132;47.946;10.394;2022-12-18T12:30:55;30.50;;;15.67;;
18013;SDS011;9132;47.946;10.394;2022-12-18T12:33:29;24.53;;;13.63;;
18013;SDS011;9132;47.946;10.394;2022-12-18T12:36:00;25.80;;;13.53;;
18013;SDS011;9132;47.946;10.394;2022-12-18T12:38:28;25.77;;;13.77;;
18013;SDS011;9132;47.946;10.394;2022-12-18T12:40:58;23.93;;;14.10;;
18013;SDS011;9132;47.946;10.394;2022-12-18T12:43:28;23.83;;;13.03;;
18013;SDS011;9132;47.946;10.394;2022-12-18T12:45:56;27.47;;;14.50;;
18013;SDS011;9132;47.946;10.394;2022-12-18T12:48:31;25.53;;;13.17;;
18013;SDS011;9132;47.946;10.394;2022-12-18T12:50:58;26.77;;;13.53;;
18013;SDS011;9132;47.946;10.394;2022-12-18T12:53:27;22.77;;;13.37;;
18013;SDS011;9132;47.946;10.394;2022-12-18T12:55:55;27.30;;;13.77;;
18013;SDS011;9132;47.946;10.394;2022-12-18T12:58:24;33.17;;;14.67;;
18013;SDS011;9132;47.946;10.394;2022-12-18T13:00:55;27.67;;;15.17;;
18013;SDS011;9132;47.946;10.394;2022-12-18T13:03:28;30.17;;;15.47;;
18013;SDS011;9132;47.946;10.394;2022-12-18T13:06:02;30.47;;;14.77;;
18013;SDS011;9132;47.946;10.394;2022-12-18T13:08:30;26.50;;;14.53;;
18013;SDS011;9132;47.946;10.394;2022-12-18T13:10:57;28.93;;;15.43;;
18013;SDS011;9132;47.946;10.394;2022-12-18T13:13:47;29.73;;;15.83;;
18013;SDS011;9132;47.946;10.394;2022-12-18T13:16:16;24.17;;;14.37;;
18013;SDS011;9132;47.946;10.394;2022-12-18T13:18:48;29.80;;;14.03;;
18013;SDS011;9132;47.946;10.394;2022-12-18T13:21:17;23.10;;;13.80;;
18013;SDS011;9132;47.946;10.394;2022-12-18T13:23:46;27.37;;;15.30;;
18013;SDS011;9132;47.946;10.394;2022-12-18T13:26:29;31.90;;;16.20;;
18013;SDS011;9132;47.946;10.394;2022-12-18T13:28:56;32.63;;;17.07;;
18013;SDS011;9132;47.946;10.394;2022-12-18T13:34:13;26.67;;;14.70;;
18013;SDS011;9132;47.946;10.394;2022-12-18T13:36:41;25.83;;;13.43;;
18013;SDS011;9132;47.946;10.394;2022-12-18T13:39:20;29.23;;;14.67;;
18013;SDS011;9132;47.946;10.394;2022-12-18T13:41:47;28.90;;;15.10;;
18013;SDS011;9132;47.946;10.394;2022-12-18T13:44:20;22.90;;;13.60;;
18013;SDS011;9132;47.946;10.394;2022-12-18T13:46:49;26.90;;;14.07;;
18013;SDS011;9132;47.946;10.394;2022-12-18T13:49:20;27.07;;;14.90;;
18013;SDS011;9132;47.946;10.394;2022-12-18T13:51:48;28.43;;;15.27;;
18013;SDS011;9132;47.946;10.394;2022-12-18T13:54:17;25.37;;;14.83;;
18013;SDS011;9132;47.946;10.394;2022-12-18T13:56:45;28.13;;;14.67;;
18013;SDS011;9132;47.946;10.394;2022-12-18T13:59:13;28.30;;;15.97;;
18013;SDS011;9132;47.946;10.394;2022-12-18T14:01:43;30.37;;;16.07;;
18013;SDS011;9132;47.946;10.394;2022-12-18T14:04:10;33.77;;;18.83;;
18013;SDS011;9132;47.946;10.394;2022-12-18T14:06:38;34.33;;;20.17;;
18013;SDS011;9132;47.946;10.394;2022-12-18T14:09:05;33.30;;;17.60;;
18013;SDS011;9132;47.946;10.394;2022-12-18T14:11:31;28.50;;;17.13;;
18013;SDS011;9132;47.946;10.394;2022-12-18T14:13:58;31.27;;;16.93;;
18013;SDS011;9132;47.946;10.394;2022-12-18T14:16:24;25.40;;;15.17;;
18013;SDS011;9132;47.946;10.394;2022-12-18T14:18:52;28.97;;;16.37;;
18013;SDS011;9132;47.946;10.394;2022-12-18T14:21:20;26.90;;;15.70;;
18013;SDS011;9132;47.946;10.394;2022-12-18T14:23:49;31.67;;;17.50;;
18013;SDS011;9132;47.946;10.394;2022-12-18T14:26:29;29.40;;;17.27;;
18013;SDS011;9132;47.946;10.394;2022-12-18T14:28:55;35.67;;;17.53;;
18013;SDS011;9132;47.946;10.394;2022-12-18T14:31:23;41.07;;;23.40;;
18013;SDS011;9132;47.946;10.394;2022-12-18T14:33:49;37.97;;;22.47;;
18013;SDS011;9132;47.946;10.394;2022-12-18T14:36:16;34.60;;;18.80;;